createdAt,value
2023-03-04T00:01:52.732Z,28.95
2023-03-04T00:04:55.333Z,28.95
2023-03-04T00:07:57.985Z,29.83
2023-03-04T00:11:00.783Z,28.10
2023-03-04T00:14:03.183Z,28.95
2023-03-04T00:17:07.088Z,29.77
2023-03-04T00:20:09.913Z,30.02
2023-03-04T00:23:12.677Z,29.90
2023-03-04T00:26:16.138Z,31.40
2023-03-04T00:29:19.242Z,32.92
2023-03-04T00:32:21.637Z,31.20
2023-03-04T00:35:24.552Z,31.67
2023-03-04T00:38:28.907Z,30.95
2023-03-04T00:41:31.561Z,33.17
2023-03-04T00:44:34.538Z,32.40
2023-03-04T00:47:37.142Z,34.10
2023-03-04T00:50:39.422Z,33.63
2023-03-04T00:53:42.036Z,33.97
2023-03-04T00:56:44.372Z,32.45
2023-03-04T00:59:47.005Z,34.00
2023-03-04T01:02:49.994Z,31.83
2023-03-04T01:05:52.646Z,32.42
2023-03-04T01:08:54.979Z,31.70
2023-03-04T01:11:57.778Z,32.90
2023-03-04T01:15:00.260Z,33.65
2023-03-04T01:18:02.939Z,33.35
2023-03-04T01:21:06.167Z,31.77
2023-03-04T01:24:09.216Z,33.00
2023-03-04T01:27:11.911Z,30.58
2023-03-04T01:30:14.587Z,33.15
2023-03-04T01:33:16.959Z,32.78
2023-03-04T01:36:19.613Z,32.75
2023-03-04T01:39:22.069Z,32.00
2023-03-04T01:42:30.559Z,31.33
2023-03-04T01:45:33.704Z,30.77
2023-03-04T01:48:39.105Z,31.75
2023-03-04T01:51:44.515Z,28.02
2023-03-04T01:54:48.941Z,23.95
2023-03-04T01:57:52.892Z,19.23
2023-03-04T02:00:55.511Z,18.35
2023-03-04T02:03:58.466Z,16.05
2023-03-04T02:07:02.749Z,14.70
2023-03-04T02:10:05.948Z,15.48
2023-03-04T02:13:10.960Z,13.27
2023-03-04T02:16:13.353Z,13.00
2023-03-04T02:19:54.044Z,13.57
2023-03-04T02:23:26.051Z,12.30
2023-03-04T02:26:30.852Z,11.00
2023-03-04T02:29:35.058Z,11.10
2023-03-04T02:32:37.687Z,11.82
2023-03-04T02:35:40.476Z,12.30
2023-03-04T02:38:43.207Z,11.03
2023-03-04T02:41:46.123Z,9.90
2023-03-04T02:44:50.442Z,10.23
2023-03-04T02:47:54.030Z,9.05
2023-03-04T02:50:56.678Z,9.05
2023-03-04T02:53:58.950Z,8.27
2023-03-04T02:57:04.255Z,7.93
2023-03-04T03:00:07.890Z,7.90
2023-03-04T03:03:10.702Z,8.10
2023-03-04T03:06:13.247Z,7.82
2023-03-04T03:09:16.132Z,8.00
2023-03-04T03:12:18.508Z,7.70
2023-03-04T03:15:21.465Z,7.35
2023-03-04T03:18:23.946Z,8.05
2023-03-04T03:21:26.553Z,7.47
2023-03-04T03:24:28.935Z,7.45
2023-03-04T03:27:31.640Z,7.50
2023-03-04T03:30:34.074Z,7.57
2023-03-04T03:33:36.709Z,7.15
2023-03-04T03:36:39.121Z,7.05
2023-03-04T03:39:41.778Z,7.53
2023-03-04T03:42:44.447Z,7.18
2023-03-04T03:45:47.253Z,7.37
2023-03-04T03:48:49.566Z,6.70
2023-03-04T03:51:52.355Z,7.82
2023-03-04T03:54:54.689Z,6.62
2023-03-04T03:57:57.485Z,6.43
2023-03-04T04:00:59.779Z,6.97
2023-03-04T04:04:02.389Z,6.78
2023-03-04T04:07:04.708Z,7.12
2023-03-04T04:10:08.509Z,7.25
2023-03-04T04:13:10.899Z,7.40
2023-03-04T04:16:13.599Z,7.15
2023-03-04T04:19:21.228Z,7.00
2023-03-04T04:22:23.829Z,7.15
2023-03-04T04:25:26.275Z,6.62
2023-03-04T04:28:28.869Z,7.25
2023-03-04T04:31:31.224Z,7.03
2023-03-04T04:34:33.789Z,6.95
2023-03-04T04:37:36.232Z,7.55
2023-03-04T04:40:38.851Z,8.02
2023-03-04T04:43:41.145Z,7.60
2023-03-04T04:46:43.985Z,6.78
2023-03-04T04:49:46.351Z,7.22
2023-03-04T04:52:49.363Z,6.85
2023-03-04T04:55:51.718Z,7.32
2023-03-04T04:58:56.937Z,7.35
2023-03-04T05:01:59.265Z,7.47
2023-03-04T05:05:06.842Z,7.97
2023-03-04T05:08:09.128Z,7.70
2023-03-04T05:11:11.726Z,7.40
2023-03-04T05:14:14.158Z,6.85
2023-03-04T05:17:17.137Z,6.93
2023-03-04T05:20:19.655Z,7.53
2023-03-04T05:23:22.495Z,7.60
2023-03-04T05:26:24.799Z,7.18
2023-03-04T05:29:27.662Z,7.07
2023-03-04T05:32:30.016Z,7.72
2023-03-04T05:35:32.841Z,7.47
2023-03-04T05:38:35.924Z,7.82
2023-03-04T05:41:38.584Z,7.75
2023-03-04T05:44:40.878Z,7.85
2023-03-04T05:47:43.492Z,8.10
2023-03-04T05:50:46.294Z,9.10
2023-03-04T05:53:49.260Z,8.20
2023-03-04T05:56:51.635Z,16.90
2023-03-04T05:59:54.320Z,9.70
2023-03-04T06:02:56.688Z,9.35
2023-03-04T06:05:59.416Z,9.10
2023-03-04T06:09:01.730Z,8.50
2023-03-04T06:12:04.653Z,8.32
2023-03-04T06:15:10.080Z,8.15
2023-03-04T06:18:12.746Z,8.85
2023-03-04T06:21:15.186Z,8.70
2023-03-04T06:24:17.808Z,8.50
2023-03-04T06:27:20.215Z,9.32
2023-03-04T06:30:23.535Z,9.00
2023-03-04T06:33:26.392Z,8.95
2023-03-04T06:36:29.089Z,8.27
2023-03-04T06:39:31.448Z,9.23
2023-03-04T06:42:35.133Z,7.97
2023-03-04T06:45:39.554Z,7.85
2023-03-04T06:48:42.306Z,7.68
2023-03-04T06:51:44.833Z,7.43
2023-03-04T06:54:47.425Z,8.18
2023-03-04T06:57:49.844Z,8.38
2023-03-04T07:00:52.585Z,7.50
2023-03-04T07:03:56.546Z,8.18
2023-03-04T07:06:59.128Z,7.72
2023-03-04T07:10:01.483Z,9.10
2023-03-04T07:13:04.128Z,8.88
2023-03-04T07:16:13.871Z,10.60
2023-03-04T07:19:16.736Z,9.82
2023-03-04T07:22:19.145Z,10.13
2023-03-04T07:25:21.719Z,11.32
2023-03-04T07:28:24.137Z,13.05
2023-03-04T07:31:30.065Z,13.00
2023-03-04T07:34:32.689Z,10.85
2023-03-04T07:37:35.313Z,10.75
2023-03-04T07:40:37.677Z,11.32
2023-03-04T07:43:40.429Z,11.77
2023-03-04T07:46:42.816Z,11.32
2023-03-04T07:49:45.580Z,11.18
2023-03-04T07:52:51.056Z,11.45
2023-03-04T07:55:54.711Z,11.45
2023-03-04T07:58:57.587Z,10.63
2023-03-04T08:02:00.862Z,9.68
2023-03-04T08:05:03.638Z,8.68
2023-03-04T08:08:05.987Z,9.02
2023-03-04T08:11:11.854Z,8.48
2023-03-04T08:14:15.022Z,7.68
2023-03-04T08:17:17.964Z,7.05
2023-03-04T08:20:20.407Z,7.35
2023-03-04T08:23:23.302Z,7.35
2023-03-04T08:26:34.005Z,7.35
2023-03-04T08:29:36.643Z,8.70
2023-03-04T08:32:39.290Z,9.15
2023-03-04T08:35:42.160Z,8.10
2023-03-04T08:38:44.483Z,9.20
2023-03-04T08:41:50.070Z,10.13
2023-03-04T08:44:52.430Z,10.18
2023-03-04T08:47:54.985Z,10.63
2023-03-04T08:50:57.338Z,10.57
2023-03-04T08:53:59.933Z,10.60
2023-03-04T08:57:03.711Z,11.12
2023-03-04T09:00:07.114Z,11.50
2023-03-04T09:03:12.281Z,11.90
2023-03-04T09:06:16.609Z,12.18
2023-03-04T09:09:18.992Z,12.15
2023-03-04T09:12:21.627Z,11.38
2023-03-04T09:15:23.945Z,12.57
2023-03-04T09:18:27.537Z,13.47
2023-03-04T09:21:29.943Z,13.10
2023-03-04T09:24:32.544Z,13.77
2023-03-04T09:27:34.939Z,13.73
2023-03-04T09:30:37.786Z,15.03
2023-03-04T09:33:41.624Z,15.00
2023-03-04T09:36:44.285Z,14.13
2023-03-04T09:39:46.590Z,13.82
2023-03-04T09:42:53.936Z,13.95
2023-03-04T09:46:06.944Z,14.52
2023-03-04T09:49:13.757Z,14.07
2023-03-04T09:52:28.142Z,14.40
2023-03-04T09:55:33.487Z,14.25
2023-03-04T09:59:01.903Z,14.13
2023-03-04T10:02:21.041Z,13.77
2023-03-04T10:05:26.197Z,14.27
2023-03-04T10:08:52.374Z,14.73
2023-03-04T10:12:06.760Z,15.13
2023-03-04T10:15:33.735Z,14.38
2023-03-04T10:18:42.464Z,14.70
2023-03-04T10:21:49.903Z,14.13
2023-03-04T10:24:56.821Z,15.50
2023-03-04T10:28:12.483Z,15.93
2023-03-04T10:31:29.593Z,14.80
2023-03-04T10:34:32.042Z,14.87
2023-03-04T10:37:50.890Z,15.60
2023-03-04T10:40:53.218Z,15.73
2023-03-04T10:44:01.978Z,15.20
2023-03-04T10:47:11.306Z,16.23
2023-03-04T10:50:25.893Z,14.80
2023-03-04T10:53:33.557Z,14.35
2023-03-04T10:56:42.794Z,14.68
2023-03-04T10:59:50.950Z,14.32
2023-03-04T11:03:13.215Z,14.32
2023-03-04T11:06:21.473Z,14.23
2023-03-04T11:09:27.178Z,13.35
2023-03-04T11:12:35.310Z,13.68
2023-03-04T11:15:58.734Z,12.82
2023-03-04T11:19:16.511Z,14.05
2023-03-04T11:22:23.332Z,13.40
2023-03-04T11:25:34.059Z,13.80
2023-03-04T11:28:42.544Z,13.65
2023-03-04T11:31:53.624Z,13.73
2023-03-04T11:35:31.227Z,13.70
2023-03-04T11:38:44.232Z,14.00
2023-03-04T11:41:58.477Z,14.10
2023-03-04T11:48:17.119Z,12.05
2023-03-04T11:51:48.834Z,13.13
2023-03-04T11:55:09.618Z,13.93
2023-03-04T11:58:42.585Z,13.88
2023-03-04T12:02:11.604Z,14.43
2023-03-04T12:05:26.562Z,13.57
2023-03-04T12:08:58.134Z,12.88
2023-03-04T12:12:16.186Z,13.48
2023-03-04T12:15:36.620Z,14.43
2023-03-04T12:18:54.408Z,13.90
2023-03-04T12:22:26.530Z,14.18
2023-03-04T12:25:29.510Z,13.65
2023-03-04T12:28:52.484Z,14.82
2023-03-04T12:32:00.842Z,12.90
2023-03-04T12:35:03.132Z,13.85
2023-03-04T12:38:22.435Z,14.48
2023-03-04T12:41:40.037Z,14.27
2023-03-04T12:45:03.741Z,13.65
2023-03-04T12:48:23.324Z,14.20
2023-03-04T12:51:35.323Z,13.82
2023-03-04T12:54:40.279Z,13.45
2023-03-04T12:57:43.558Z,13.20
2023-03-04T13:01:06.684Z,13.23
2023-03-04T13:04:38.705Z,13.93
2023-03-04T13:07:49.984Z,13.75
2023-03-04T13:10:52.654Z,12.63
2023-03-04T13:14:22.694Z,12.32
2023-03-04T13:17:51.307Z,13.18
2023-03-04T13:21:11.891Z,13.65
2023-03-04T13:24:44.636Z,13.23
2023-03-04T13:27:50.826Z,13.07
2023-03-04T13:30:57.021Z,12.77
2023-03-04T13:34:01.013Z,11.75
2023-03-04T13:37:24.059Z,11.43
2023-03-04T13:40:34.852Z,9.95
2023-03-04T13:43:41.680Z,9.55
2023-03-04T13:46:44.337Z,8.85
2023-03-04T13:49:47.094Z,10.10
2023-03-04T13:52:49.470Z,9.65
2023-03-04T13:56:22.105Z,8.43
2023-03-04T13:59:30.092Z,8.85
2023-03-04T14:02:34.995Z,7.62
2023-03-04T14:05:37.590Z,8.80
2023-03-04T14:08:39.851Z,8.25
2023-03-04T14:11:44.257Z,7.90
2023-03-04T14:15:21.271Z,7.35
2023-03-04T14:18:28.121Z,7.22
2023-03-04T14:21:31.654Z,7.30
2023-03-04T14:27:37.085Z,6.82
2023-03-04T14:30:43.962Z,6.32
2023-03-04T14:34:01.853Z,6.60
2023-03-04T14:37:19.563Z,7.28
2023-03-04T14:40:25.867Z,7.37
2023-03-04T14:43:30.629Z,7.37
2023-03-04T14:46:44.179Z,7.07
2023-03-04T14:49:49.191Z,6.95
2023-03-04T14:53:22.784Z,7.35
2023-03-04T14:56:30.942Z,7.70
2023-03-04T14:59:35.745Z,7.85
2023-03-04T15:02:39.770Z,7.18
2023-03-04T15:05:42.309Z,7.15
2023-03-04T15:08:46.618Z,7.45
2023-03-04T15:15:43.286Z,7.87
2023-03-04T15:19:23.264Z,8.68
2023-03-04T15:22:26.075Z,9.88
2023-03-04T15:25:29.712Z,9.95
2023-03-04T15:34:39.262Z,8.30
2023-03-04T15:37:42.890Z,9.10
2023-03-04T15:40:45.529Z,8.90
2023-03-04T15:43:48.083Z,9.10
2023-03-04T15:46:50.696Z,9.05
2023-03-04T15:49:53.558Z,9.95
2023-03-04T15:53:04.200Z,10.27
2023-03-04T15:56:12.423Z,10.18
2023-03-04T15:59:17.433Z,10.02
2023-03-04T16:02:24.119Z,9.60
2023-03-04T16:05:26.896Z,10.20
2023-03-04T16:08:29.504Z,10.18
2023-03-04T16:11:40.045Z,10.05
2023-03-04T16:14:43.154Z,9.80
2023-03-04T16:17:46.898Z,10.20
2023-03-04T16:20:50.808Z,9.95
2023-03-04T16:23:54.653Z,14.40
2023-03-04T16:26:57.308Z,9.93
2023-03-04T16:30:00.001Z,10.45
2023-03-04T16:33:02.298Z,10.18
2023-03-04T16:36:31.206Z,10.75
2023-03-04T16:39:34.007Z,10.35
2023-03-04T16:42:36.758Z,10.27
2023-03-04T16:45:39.397Z,9.85
2023-03-04T16:48:42.038Z,10.57
2023-03-04T16:51:48.609Z,10.52
2023-03-04T16:54:51.859Z,9.55
2023-03-04T16:57:55.434Z,10.95
2023-03-04T17:00:58.093Z,10.77
2023-03-04T17:04:00.436Z,10.48
2023-03-04T17:07:03.065Z,10.18
2023-03-04T17:10:05.900Z,11.10
2023-03-04T17:13:08.842Z,10.37
2023-03-04T17:16:12.396Z,10.40
2023-03-04T17:19:15.180Z,10.15
2023-03-04T17:22:17.514Z,9.75
2023-03-04T17:25:20.216Z,10.63
2023-03-04T17:28:22.604Z,9.77
2023-03-04T17:31:25.252Z,10.50
2023-03-04T17:34:27.521Z,10.02
2023-03-04T17:37:30.142Z,10.40
2023-03-04T17:40:32.966Z,10.25
2023-03-04T17:43:35.684Z,10.53
2023-03-04T17:46:39.188Z,10.18
2023-03-04T17:49:41.999Z,10.85
2023-03-04T17:52:44.301Z,10.20
2023-03-04T17:56:08.532Z,10.23
2023-03-04T17:59:16.424Z,11.23
2023-03-04T18:02:19.114Z,10.27
2023-03-04T18:05:21.836Z,11.18
2023-03-04T18:08:24.455Z,10.27
2023-03-04T18:11:30.544Z,10.35
2023-03-04T18:14:32.922Z,11.43
2023-03-04T18:17:35.937Z,11.77
2023-03-04T18:20:38.270Z,12.20
2023-03-04T18:23:40.842Z,12.02
2023-03-04T18:26:43.329Z,12.90
2023-03-04T18:29:45.945Z,12.45
2023-03-04T18:32:52.122Z,12.25
2023-03-04T18:36:00.136Z,15.23
2023-03-04T18:39:05.267Z,12.20
2023-03-04T18:42:08.023Z,12.82
2023-03-04T18:45:12.641Z,12.90
2023-03-04T18:48:15.344Z,11.75
2023-03-04T18:51:17.807Z,11.88
2023-03-04T18:54:20.511Z,10.32
2023-03-04T18:57:22.936Z,10.90
2023-03-04T19:00:25.822Z,10.07
2023-03-04T19:04:30.945Z,10.60
2023-03-04T19:07:33.704Z,9.35
2023-03-04T19:10:36.098Z,8.60
2023-03-04T19:13:38.728Z,8.68
2023-03-04T19:16:41.551Z,8.10
2023-03-04T19:19:44.705Z,7.43
2023-03-04T19:22:49.507Z,7.75
2023-03-04T19:25:52.143Z,7.35
2023-03-04T19:28:54.503Z,7.05
2023-03-04T19:31:59.313Z,7.30
2023-03-04T19:35:01.937Z,6.68
2023-03-04T19:38:06.758Z,5.97
2023-03-04T19:41:16.812Z,6.25
2023-03-04T19:47:27.162Z,5.60
2023-03-04T19:50:31.337Z,6.27
2023-03-04T19:53:34.964Z,6.62
2023-03-04T19:59:40.098Z,5.55
2023-03-04T20:02:44.172Z,6.15
2023-03-04T20:08:58.194Z,5.80
2023-03-04T20:12:00.930Z,5.85
2023-03-04T20:15:06.577Z,5.25
2023-03-04T20:18:12.927Z,6.07
2023-03-04T20:21:18.230Z,6.00
2023-03-04T20:24:23.357Z,5.68
2023-03-04T20:27:26.122Z,5.43
2023-03-04T20:30:33.018Z,6.05
2023-03-04T20:33:44.396Z,6.07
2023-03-04T20:36:51.455Z,6.70
2023-03-04T20:39:57.118Z,6.60
2023-03-04T20:43:00.093Z,6.15
2023-03-04T20:46:28.836Z,5.43
2023-03-04T20:49:31.687Z,6.20
2023-03-04T20:52:34.095Z,5.68
2023-03-04T20:55:36.739Z,5.25
2023-03-04T20:58:39.217Z,6.20
2023-03-04T21:01:44.349Z,5.55
2023-03-04T21:04:46.854Z,6.43
2023-03-04T21:07:49.553Z,5.87
2023-03-04T21:10:51.847Z,5.93
2023-03-04T21:13:56.584Z,5.47
2023-03-04T21:17:02.104Z,5.43
2023-03-04T21:20:05.164Z,5.37
2023-03-04T21:23:07.600Z,5.85
2023-03-04T21:26:10.218Z,6.15
2023-03-04T21:29:12.750Z,6.55
2023-03-04T21:32:27.134Z,6.22
2023-03-04T21:35:29.711Z,6.15
2023-03-04T21:38:32.418Z,7.15
2023-03-04T21:41:38.546Z,6.75
2023-03-04T21:44:55.633Z,8.40
2023-03-04T21:47:58.024Z,7.60
2023-03-04T21:51:02.722Z,6.57
2023-03-04T21:54:07.613Z,6.40
2023-03-04T21:57:10.598Z,6.47
2023-03-04T22:00:14.272Z,5.50
2023-03-04T22:06:22.188Z,6.03
2023-03-04T22:09:25.147Z,5.85
2023-03-04T22:12:27.481Z,5.75
2023-03-04T22:15:30.128Z,5.82
2023-03-04T22:18:32.690Z,5.90
2023-03-04T22:21:35.338Z,5.78
2023-03-04T22:24:38.101Z,6.12
2023-03-04T22:27:40.765Z,6.65
2023-03-04T22:30:43.190Z,5.55
2023-03-04T22:33:46.355Z,6.12
2023-03-04T22:36:49.447Z,5.78
2023-03-04T22:39:52.108Z,5.93
2023-03-04T22:42:54.419Z,5.95
2023-03-04T22:46:00.176Z,5.60
2023-03-04T22:49:05.310Z,6.07
2023-03-04T22:52:07.915Z,5.93
2023-03-04T22:55:20.709Z,5.28
2023-03-04T22:58:23.378Z,5.57
2023-03-04T23:01:25.879Z,5.60
2023-03-04T23:04:28.547Z,6.00
2023-03-04T23:07:30.895Z,5.37
2023-03-04T23:10:36.029Z,5.00
2023-03-04T23:13:39.637Z,5.10
2023-03-04T23:16:44.177Z,5.45
2023-03-04T23:19:46.716Z,4.93
2023-03-04T23:22:51.990Z,5.50
2023-03-04T23:25:54.477Z,5.65
2023-03-04T23:28:57.288Z,5.95
2023-03-04T23:31:59.658Z,5.37
2023-03-04T23:35:02.770Z,5.65
2023-03-04T23:38:05.245Z,5.75
2023-03-04T23:41:08.363Z,6.05
2023-03-04T23:44:12.741Z,5.85
2023-03-04T23:47:15.436Z,6.43
2023-03-04T23:50:18.190Z,6.47
2023-03-04T23:53:21.204Z,6.50
2023-03-04T23:56:26.839Z,6.78
2023-03-04T23:59:30.914Z,6.22
